sensor_id;sensor_type;location;lat;lon;timestamp;temperature;humidity
24470;DHT22;12635;50.852;5.676;2023-03-01T00:00:13;-1.50;99.90
24470;DHT22;12635;50.852;5.676;2023-03-01T00:02:41;-1.80;99.90
24470;DHT22;12635;50.852;5.676;2023-03-01T00:05:08;-2.20;99.90
24470;DHT22;12635;50.852;5.676;2023-03-01T00:07:35;-2.10;99.90
24470;DHT22;12635;50.852;5.676;2023-03-01T00:10:02;-1.80;99.90
24470;DHT22;12635;50.852;5.676;2023-03-01T00:12:29;-1.90;99.90
24470;DHT22;12635;50.852;5.676;2023-03-01T00:14:55;-2.10;99.90
24470;DHT22;12635;50.852;5.676;2023-03-01T00:17:22;-2.30;99.90
24470;DHT22;12635;50.852;5.676;2023-03-01T00:19:51;-2.40;99.90
24470;DHT22;12635;50.852;5.676;2023-03-01T00:22:17;-2.40;99.90
24470;DHT22;12635;50.852;5.676;2023-03-01T00:24:44;-2.20;99.90
24470;DHT22;12635;50.852;5.676;2023-03-01T00:27:11;-2.10;99.90
24470;DHT22;12635;50.852;5.676;2023-03-01T00:29:38;-2.10;99.90
24470;DHT22;12635;50.852;5.676;2023-03-01T00:32:05;-2.10;99.90
24470;DHT22;12635;50.852;5.676;2023-03-01T00:34:32;-2.10;99.90
24470;DHT22;12635;50.852;5.676;2023-03-01T00:37:00;-2.10;99.90
24470;DHT22;12635;50.852;5.676;2023-03-01T00:39:30;-1.90;99.90
24470;DHT22;12635;50.852;5.676;2023-03-01T00:41:57;-1.90;99.90
24470;DHT22;12635;50.852;5.676;2023-03-01T00:44:24;-1.80;99.90
24470;DHT22;12635;50.852;5.676;2023-03-01T00:46:51;-2.00;99.90
24470;DHT22;12635;50.852;5.676;2023-03-01T00:49:18;-2.10;99.90
24470;DHT22;12635;50.852;5.676;2023-03-01T00:51:45;-2.20;99.90
24470;DHT22;12635;50.852;5.676;2023-03-01T00:54:13;-2.20;99.90
24470;DHT22;12635;50.852;5.676;2023-03-01T00:56:40;-2.20;99.90
24470;DHT22;12635;50.852;5.676;2023-03-01T00:59:07;-2.50;99.90
24470;DHT22;12635;50.852;5.676;2023-03-01T01:01:33;-2.40;99.90
24470;DHT22;12635;50.852;5.676;2023-03-01T01:04:01;-2.40;99.90
24470;DHT22;12635;50.852;5.676;2023-03-01T01:06:30;-2.60;99.90
24470;DHT22;12635;50.852;5.676;2023-03-01T01:08:57;-2.70;99.90
24470;DHT22;12635;50.852;5.676;2023-03-01T01:11:26;-2.90;99.90
24470;DHT22;12635;50.852;5.676;2023-03-01T01:13:54;-3.00;99.90
24470;DHT22;12635;50.852;5.676;2023-03-01T01:16:21;-2.80;99.90
24470;DHT22;12635;50.852;5.676;2023-03-01T01:18:48;-3.00;99.90
24470;DHT22;12635;50.852;5.676;2023-03-01T01:21:16;-2.90;99.90
24470;DHT22;12635;50.852;5.676;2023-03-01T01:23:44;-2.90;99.90
24470;DHT22;12635;50.852;5.676;2023-03-01T01:26:12;-2.80;99.90
24470;DHT22;12635;50.852;5.676;2023-03-01T01:28:40;-2.80;99.90
24470;DHT22;12635;50.852;5.676;2023-03-01T01:31:07;-2.60;99.90
24470;DHT22;12635;50.852;5.676;2023-03-01T01:33:35;-2.80;99.90
24470;DHT22;12635;50.852;5.676;2023-03-01T01:36:03;-2.90;99.90
24470;DHT22;12635;50.852;5.676;2023-03-01T01:38:30;-2.90;99.90
24470;DHT22;12635;50.852;5.676;2023-03-01T01:40:57;-2.90;99.90
24470;DHT22;12635;50.852;5.676;2023-03-01T01:43:25;-2.90;99.90
24470;DHT22;12635;50.852;5.676;2023-03-01T01:45:54;-3.20;99.90
24470;DHT22;12635;50.852;5.676;2023-03-01T01:48:22;-3.20;99.90
24470;DHT22;12635;50.852;5.676;2023-03-01T01:50:51;-3.40;99.90
24470;DHT22;12635;50.852;5.676;2023-03-01T01:53:20;-3.50;99.90
24470;DHT22;12635;50.852;5.676;2023-03-01T01:55:49;-3.30;99.90
24470;DHT22;12635;50.852;5.676;2023-03-01T01:58:17;-2.90;99.90
24470;DHT22;12635;50.852;5.676;2023-03-01T02:00:45;-2.80;99.90
24470;DHT22;12635;50.852;5.676;2023-03-01T02:03:14;-2.70;99.90
24470;DHT22;12635;50.852;5.676;2023-03-01T02:05:45;-2.90;99.90
24470;DHT22;12635;50.852;5.676;2023-03-01T02:08:14;-2.90;99.90
24470;DHT22;12635;50.852;5.676;2023-03-01T02:10:41;-2.90;99.90
24470;DHT22;12635;50.852;5.676;2023-03-01T02:13:08;-3.00;99.90
24470;DHT22;12635;50.852;5.676;2023-03-01T02:15:36;-2.90;99.90
24470;DHT22;12635;50.852;5.676;2023-03-01T02:18:04;-3.10;99.90
24470;DHT22;12635;50.852;5.676;2023-03-01T02:20:34;-3.00;99.90
24470;DHT22;12635;50.852;5.676;2023-03-01T02:23:02;-3.00;99.90
24470;DHT22;12635;50.852;5.676;2023-03-01T02:25:33;-2.90;99.90
24470;DHT22;12635;50.852;5.676;2023-03-01T02:28:04;-2.80;99.90
24470;DHT22;12635;50.852;5.676;2023-03-01T02:30:34;-3.00;99.90
24470;DHT22;12635;50.852;5.676;2023-03-01T02:33:02;-3.20;99.90
24470;DHT22;12635;50.852;5.676;2023-03-01T02:35:28;-3.20;99.90
24470;DHT22;12635;50.852;5.676;2023-03-01T02:37:57;-3.30;99.90
24470;DHT22;12635;50.852;5.676;2023-03-01T02:40:26;-3.20;99.90
24470;DHT22;12635;50.852;5.676;2023-03-01T02:42:55;-3.40;99.90
24470;DHT22;12635;50.852;5.676;2023-03-01T02:45:22;-3.30;99.90
24470;DHT22;12635;50.852;5.676;2023-03-01T02:47:52;-3.50;99.90
24470;DHT22;12635;50.852;5.676;2023-03-01T02:50:23;-3.60;99.90
24470;DHT22;12635;50.852;5.676;2023-03-01T02:52:53;-3.40;99.90
24470;DHT22;12635;50.852;5.676;2023-03-01T02:55:22;-3.40;99.90
24470;DHT22;12635;50.852;5.676;2023-03-01T02:57:49;-3.20;99.90
24470;DHT22;12635;50.852;5.676;2023-03-01T03:00:17;-3.20;99.90
24470;DHT22;12635;50.852;5.676;2023-03-01T03:02:45;-3.10;99.90
24470;DHT22;12635;50.852;5.676;2023-03-01T03:05:14;-3.10;99.90
24470;DHT22;12635;50.852;5.676;2023-03-01T03:07:42;-3.00;99.90
24470;DHT22;12635;50.852;5.676;2023-03-01T03:10:12;-3.20;99.90
24470;DHT22;12635;50.852;5.676;2023-03-01T03:12:39;-3.40;99.90
24470;DHT22;12635;50.852;5.676;2023-03-01T03:15:07;-3.30;99.90
24470;DHT22;12635;50.852;5.676;2023-03-01T03:17:35;-3.30;99.90
24470;DHT22;12635;50.852;5.676;2023-03-01T03:20:03;-3.30;99.90
24470;DHT22;12635;50.852;5.676;2023-03-01T03:22:31;-3.10;99.90
24470;DHT22;12635;50.852;5.676;2023-03-01T03:24:59;-3.10;99.90
24470;DHT22;12635;50.852;5.676;2023-03-01T03:27:27;-3.10;99.90
24470;DHT22;12635;50.852;5.676;2023-03-01T03:29:54;-3.20;99.90
24470;DHT22;12635;50.852;5.676;2023-03-01T03:32:21;-3.10;99.90
24470;DHT22;12635;50.852;5.676;2023-03-01T03:34:47;-3.00;99.90
24470;DHT22;12635;50.852;5.676;2023-03-01T03:37:14;-3.00;99.90
24470;DHT22;12635;50.852;5.676;2023-03-01T03:39:57;-3.30;99.90
24470;DHT22;12635;50.852;5.676;2023-03-01T03:42:23;-3.60;99.90
24470;DHT22;12635;50.852;5.676;2023-03-01T03:44:50;-3.60;99.90
24470;DHT22;12635;50.852;5.676;2023-03-01T03:47:17;-3.60;99.90
24470;DHT22;12635;50.852;5.676;2023-03-01T03:49:44;-3.30;99.90
24470;DHT22;12635;50.852;5.676;2023-03-01T03:52:11;-3.30;99.90
24470;DHT22;12635;50.852;5.676;2023-03-01T03:54:39;-3.40;99.90
24470;DHT22;12635;50.852;5.676;2023-03-01T03:57:07;-3.60;99.90
24470;DHT22;12635;50.852;5.676;2023-03-01T03:59:34;-3.70;99.90
24470;DHT22;12635;50.852;5.676;2023-03-01T04:02:00;-3.80;99.90
24470;DHT22;12635;50.852;5.676;2023-03-01T04:04:27;-4.10;99.90
24470;DHT22;12635;50.852;5.676;2023-03-01T04:06:54;-4.00;99.90
24470;DHT22;12635;50.852;5.676;2023-03-01T04:09:21;-4.00;99.90
24470;DHT22;12635;50.852;5.676;2023-03-01T04:11:48;-3.70;99.90
24470;DHT22;12635;50.852;5.676;2023-03-01T04:14:16;-3.70;99.90
24470;DHT22;12635;50.852;5.676;2023-03-01T04:16:43;-3.70;99.90
24470;DHT22;12635;50.852;5.676;2023-03-01T04:19:10;-3.90;99.90
24470;DHT22;12635;50.852;5.676;2023-03-01T04:21:36;-3.90;99.90
24470;DHT22;12635;50.852;5.676;2023-03-01T04:24:03;-4.10;99.90
24470;DHT22;12635;50.852;5.676;2023-03-01T04:26:30;-3.80;99.90
24470;DHT22;12635;50.852;5.676;2023-03-01T04:28:57;-3.90;99.90
24470;DHT22;12635;50.852;5.676;2023-03-01T04:31:25;-4.00;99.90
24470;DHT22;12635;50.852;5.676;2023-03-01T04:33:54;-3.80;99.90
24470;DHT22;12635;50.852;5.676;2023-03-01T04:36:23;-3.80;99.90
24470;DHT22;12635;50.852;5.676;2023-03-01T04:38:50;-3.80;99.90
24470;DHT22;12635;50.852;5.676;2023-03-01T04:41:17;-4.00;99.90
24470;DHT22;12635;50.852;5.676;2023-03-01T04:43:44;-3.90;99.90
24470;DHT22;12635;50.852;5.676;2023-03-01T04:46:12;-3.80;99.90
24470;DHT22;12635;50.852;5.676;2023-03-01T04:48:41;-3.90;99.90
24470;DHT22;12635;50.852;5.676;2023-03-01T04:51:08;-3.90;99.90
24470;DHT22;12635;50.852;5.676;2023-03-01T04:53:39;-3.90;99.90
24470;DHT22;12635;50.852;5.676;2023-03-01T04:56:06;-4.00;99.90
24470;DHT22;12635;50.852;5.676;2023-03-01T04:58:33;-4.00;99.90
24470;DHT22;12635;50.852;5.676;2023-03-01T05:01:00;-4.30;99.90
24470;DHT22;12635;50.852;5.676;2023-03-01T05:03:26;-4.20;99.90
24470;DHT22;12635;50.852;5.676;2023-03-01T05:05:58;-4.40;99.90
24470;DHT22;12635;50.852;5.676;2023-03-01T05:08:25;-4.40;99.90
24470;DHT22;12635;50.852;5.676;2023-03-01T05:10:52;-4.40;99.90
24470;DHT22;12635;50.852;5.676;2023-03-01T05:13:20;-4.30;99.90
24470;DHT22;12635;50.852;5.676;2023-03-01T05:15:47;-4.40;99.90
24470;DHT22;12635;50.852;5.676;2023-03-01T05:18:15;-4.50;99.90
24470;DHT22;12635;50.852;5.676;2023-03-01T05:20:42;-4.30;99.90
24470;DHT22;12635;50.852;5.676;2023-03-01T05:23:11;-4.30;99.90
24470;DHT22;12635;50.852;5.676;2023-03-01T05:25:38;-4.20;99.90
24470;DHT22;12635;50.852;5.676;2023-03-01T05:28:07;-4.40;99.90
24470;DHT22;12635;50.852;5.676;2023-03-01T05:30:36;-4.30;99.90
24470;DHT22;12635;50.852;5.676;2023-03-01T05:33:05;-4.30;99.90
24470;DHT22;12635;50.852;5.676;2023-03-01T05:35:36;-4.30;99.90
24470;DHT22;12635;50.852;5.676;2023-03-01T05:38:03;-4.20;99.90
24470;DHT22;12635;50.852;5.676;2023-03-01T05:40:32;-4.00;99.90
24470;DHT22;12635;50.852;5.676;2023-03-01T05:42:59;-4.10;99.90
24470;DHT22;12635;50.852;5.676;2023-03-01T05:45:27;-3.90;99.90
24470;DHT22;12635;50.852;5.676;2023-03-01T05:47:54;-3.90;99.90
24470;DHT22;12635;50.852;5.676;2023-03-01T05:50:22;-3.90;99.90
24470;DHT22;12635;50.852;5.676;2023-03-01T05:52:51;-3.80;99.90
24470;DHT22;12635;50.852;5.676;2023-03-01T05:55:19;-3.80;99.90
24470;DHT22;12635;50.852;5.676;2023-03-01T05:57:48;-4.00;99.90
24470;DHT22;12635;50.852;5.676;2023-03-01T06:00:17;-4.20;99.90
24470;DHT22;12635;50.852;5.676;2023-03-01T06:02:44;-4.20;99.90
24470;DHT22;12635;50.852;5.676;2023-03-01T06:05:12;-4.10;99.90
24470;DHT22;12635;50.852;5.676;2023-03-01T06:07:39;-4.30;99.90
24470;DHT22;12635;50.852;5.676;2023-03-01T06:10:06;-4.30;99.90
24470;DHT22;12635;50.852;5.676;2023-03-01T06:12:34;-4.30;99.90
24470;DHT22;12635;50.852;5.676;2023-03-01T06:15:04;-4.50;99.90
24470;DHT22;12635;50.852;5.676;2023-03-01T06:17:32;-4.30;99.90
24470;DHT22;12635;50.852;5.676;2023-03-01T06:20:02;-4.50;99.90
24470;DHT22;12635;50.852;5.676;2023-03-01T06:22:29;-4.50;99.90
24470;DHT22;12635;50.852;5.676;2023-03-01T06:24:56;-4.60;99.90
24470;DHT22;12635;50.852;5.676;2023-03-01T06:27:23;-4.70;99.90
24470;DHT22;12635;50.852;5.676;2023-03-01T06:29:50;-4.80;99.90
24470;DHT22;12635;50.852;5.676;2023-03-01T06:32:18;-4.70;99.90
24470;DHT22;12635;50.852;5.676;2023-03-01T06:34:45;-4.30;99.90
24470;DHT22;12635;50.852;5.676;2023-03-01T06:37:12;-4.20;99.90
24470;DHT22;12635;50.852;5.676;2023-03-01T06:39:39;-4.10;99.90
24470;DHT22;12635;50.852;5.676;2023-03-01T06:42:07;-4.00;99.90
24470;DHT22;12635;50.852;5.676;2023-03-01T06:44:35;-3.90;99.90
24470;DHT22;12635;50.852;5.676;2023-03-01T06:47:02;-3.90;99.90
24470;DHT22;12635;50.852;5.676;2023-03-01T06:49:31;-3.80;99.90
24470;DHT22;12635;50.852;5.676;2023-03-01T06:51:58;-3.70;99.90
24470;DHT22;12635;50.852;5.676;2023-03-01T06:54:25;-3.40;99.90
24470;DHT22;12635;50.852;5.676;2023-03-01T06:56:52;-3.10;99.90
24470;DHT22;12635;50.852;5.676;2023-03-01T06:59:19;-2.80;99.90
24470;DHT22;12635;50.852;5.676;2023-03-01T07:01:46;-2.70;99.90
24470;DHT22;12635;50.852;5.676;2023-03-01T07:04:13;-2.60;99.90
24470;DHT22;12635;50.852;5.676;2023-03-01T07:06:41;-2.40;99.90
24470;DHT22;12635;50.852;5.676;2023-03-01T07:09:08;-2.20;99.90
24470;DHT22;12635;50.852;5.676;2023-03-01T07:11:35;-1.80;99.90
24470;DHT22;12635;50.852;5.676;2023-03-01T07:14:02;-1.40;99.90
24470;DHT22;12635;50.852;5.676;2023-03-01T07:16:29;-1.10;99.90
24470;DHT22;12635;50.852;5.676;2023-03-01T07:18:55;-0.90;99.90
24470;DHT22;12635;50.852;5.676;2023-03-01T07:21:22;-0.60;99.90
24470;DHT22;12635;50.852;5.676;2023-03-01T07:23:51;-0.50;99.90
24470;DHT22;12635;50.852;5.676;2023-03-01T07:26:17;-0.20;99.90
24470;DHT22;12635;50.852;5.676;2023-03-01T07:28:44;0.00;99.90
24470;DHT22;12635;50.852;5.676;2023-03-01T07:31:11;0.10;99.90
24470;DHT22;12635;50.852;5.676;2023-03-01T07:33:38;0.40;99.90
24470;DHT22;12635;50.852;5.676;2023-03-01T07:36:05;0.60;99.90
24470;DHT22;12635;50.852;5.676;2023-03-01T07:38:32;0.60;99.90
24470;DHT22;12635;50.852;5.676;2023-03-01T07:41:01;0.90;99.90
24470;DHT22;12635;50.852;5.676;2023-03-01T07:43:28;0.90;99.90
24470;DHT22;12635;50.852;5.676;2023-03-01T07:45:57;1.90;99.90
24470;DHT22;12635;50.852;5.676;2023-03-01T07:48:24;1.50;99.90
24470;DHT22;12635;50.852;5.676;2023-03-01T07:50:51;1.60;99.90
24470;DHT22;12635;50.852;5.676;2023-03-01T07:53:18;1.80;99.90
24470;DHT22;12635;50.852;5.676;2023-03-01T07:55:45;1.70;99.90
24470;DHT22;12635;50.852;5.676;2023-03-01T07:58:13;2.80;99.90
24470;DHT22;12635;50.852;5.676;2023-03-01T08:00:40;2.50;99.90
24470;DHT22;12635;50.852;5.676;2023-03-01T08:03:07;1.60;99.90
24470;DHT22;12635;50.852;5.676;2023-03-01T08:05:33;2.00;99.90
24470;DHT22;12635;50.852;5.676;2023-03-01T08:08:00;2.00;99.90
24470;DHT22;12635;50.852;5.676;2023-03-01T08:10:27;2.50;99.90
24470;DHT22;12635;50.852;5.676;2023-03-01T08:12:54;3.50;99.90
24470;DHT22;12635;50.852;5.676;2023-03-01T08:15:22;2.90;99.90
24470;DHT22;12635;50.852;5.676;2023-03-01T08:17:49;2.70;99.90
24470;DHT22;12635;50.852;5.676;2023-03-01T08:20:16;3.10;99.90
24470;DHT22;12635;50.852;5.676;2023-03-01T08:22:43;2.90;99.90
24470;DHT22;12635;50.852;5.676;2023-03-01T08:25:10;3.00;99.90
24470;DHT22;12635;50.852;5.676;2023-03-01T08:27:37;2.70;99.90
24470;DHT22;12635;50.852;5.676;2023-03-01T08:30:04;2.60;99.90
24470;DHT22;12635;50.852;5.676;2023-03-01T08:32:36;2.10;99.90
24470;DHT22;12635;50.852;5.676;2023-03-01T08:35:03;1.90;99.90
24470;DHT22;12635;50.852;5.676;2023-03-01T08:37:30;2.40;99.90
24470;DHT22;12635;50.852;5.676;2023-03-01T08:39:58;2.60;99.90
24470;DHT22;12635;50.852;5.676;2023-03-01T08:42:25;2.90;99.90
24470;DHT22;12635;50.852;5.676;2023-03-01T08:44:52;3.00;99.90
24470;DHT22;12635;50.852;5.676;2023-03-01T08:47:19;3.30;99.90
24470;DHT22;12635;50.852;5.676;2023-03-01T08:49:48;3.10;99.90
24470;DHT22;12635;50.852;5.676;2023-03-01T08:52:15;3.20;99.90
24470;DHT22;12635;50.852;5.676;2023-03-01T08:54:42;3.10;99.90
24470;DHT22;12635;50.852;5.676;2023-03-01T08:57:09;3.40;99.90
24470;DHT22;12635;50.852;5.676;2023-03-01T08:59:36;4.30;99.90
24470;DHT22;12635;50.852;5.676;2023-03-01T09:02:02;4.00;99.90
24470;DHT22;12635;50.852;5.676;2023-03-01T09:04:29;3.90;99.90
24470;DHT22;12635;50.852;5.676;2023-03-01T09:06:58;3.70;99.90
24470;DHT22;12635;50.852;5.676;2023-03-01T09:09:24;4.30;99.90
24470;DHT22;12635;50.852;5.676;2023-03-01T09:11:51;4.50;99.90
24470;DHT22;12635;50.852;5.676;2023-03-01T09:14:18;5.10;99.90
24470;DHT22;12635;50.852;5.676;2023-03-01T09:16:45;5.30;99.90
24470;DHT22;12635;50.852;5.676;2023-03-01T09:19:12;4.80;99.90
24470;DHT22;12635;50.852;5.676;2023-03-01T09:21:39;4.30;99.90
24470;DHT22;12635;50.852;5.676;2023-03-01T09:24:08;4.10;99.90
24470;DHT22;12635;50.852;5.676;2023-03-01T09:26:38;4.50;99.90
24470;DHT22;12635;50.852;5.676;2023-03-01T09:29:05;5.00;99.90
24470;DHT22;12635;50.852;5.676;2023-03-01T09:31:32;6.10;99.90
24470;DHT22;12635;50.852;5.676;2023-03-01T09:33:58;6.60;99.90
24470;DHT22;12635;50.852;5.676;2023-03-01T09:36:25;6.60;99.90
24470;DHT22;12635;50.852;5.676;2023-03-01T09:38:52;6.60;99.90
24470;DHT22;12635;50.852;5.676;2023-03-01T09:41:30;6.00;99.90
24470;DHT22;12635;50.852;5.676;2023-03-01T09:44:01;6.80;99.90
24470;DHT22;12635;50.852;5.676;2023-03-01T09:46:30;7.00;99.90
24470;DHT22;12635;50.852;5.676;2023-03-01T09:49:01;6.60;99.90
24470;DHT22;12635;50.852;5.676;2023-03-01T09:51:30;6.60;99.90
24470;DHT22;12635;50.852;5.676;2023-03-01T09:53:57;6.50;99.90
24470;DHT22;12635;50.852;5.676;2023-03-01T09:56:29;6.50;99.90
24470;DHT22;12635;50.852;5.676;2023-03-01T09:58:57;7.40;99.90
24470;DHT22;12635;50.852;5.676;2023-03-01T10:01:27;6.70;99.90
24470;DHT22;12635;50.852;5.676;2023-03-01T10:04:04;6.60;99.90
24470;DHT22;12635;50.852;5.676;2023-03-01T10:06:32;7.50;99.90
24470;DHT22;12635;50.852;5.676;2023-03-01T10:09:00;7.00;99.90
24470;DHT22;12635;50.852;5.676;2023-03-01T10:11:30;7.70;99.90
24470;DHT22;12635;50.852;5.676;2023-03-01T10:13:59;7.50;99.90
24470;DHT22;12635;50.852;5.676;2023-03-01T10:16:29;7.40;99.90
24470;DHT22;12635;50.852;5.676;2023-03-01T10:19:00;7.80;99.90
24470;DHT22;12635;50.852;5.676;2023-03-01T10:21:28;7.10;99.90
24470;DHT22;12635;50.852;5.676;2023-03-01T10:23:57;7.40;99.90
24470;DHT22;12635;50.852;5.676;2023-03-01T10:26:35;8.00;99.90
24470;DHT22;12635;50.852;5.676;2023-03-01T10:29:04;8.10;99.90
24470;DHT22;12635;50.852;5.676;2023-03-01T10:31:36;7.50;99.90
24470;DHT22;12635;50.852;5.676;2023-03-01T10:34:07;7.90;99.90
24470;DHT22;12635;50.852;5.676;2023-03-01T10:36:34;8.00;99.90
24470;DHT22;12635;50.852;5.676;2023-03-01T10:39:02;7.60;99.90
24470;DHT22;12635;50.852;5.676;2023-03-01T10:41:35;8.00;99.90
24470;DHT22;12635;50.852;5.676;2023-03-01T10:44:09;7.80;99.90
24470;DHT22;12635;50.852;5.676;2023-03-01T10:46:58;8.10;99.90
24470;DHT22;12635;50.852;5.676;2023-03-01T10:49:25;7.80;99.90
24470;DHT22;12635;50.852;5.676;2023-03-01T10:51:53;6.30;99.90
24470;DHT22;12635;50.852;5.676;2023-03-01T10:54:21;7.30;99.90
24470;DHT22;12635;50.852;5.676;2023-03-01T10:56:51;7.80;99.90
24470;DHT22;12635;50.852;5.676;2023-03-01T10:59:21;7.30;99.90
24470;DHT22;12635;50.852;5.676;2023-03-01T11:01:52;6.20;99.90
24470;DHT22;12635;50.852;5.676;2023-03-01T11:04:27;5.90;99.90
24470;DHT22;12635;50.852;5.676;2023-03-01T11:06:57;5.80;99.90
24470;DHT22;12635;50.852;5.676;2023-03-01T11:09:24;6.10;99.90
24470;DHT22;12635;50.852;5.676;2023-03-01T11:11:54;6.70;99.90
24470;DHT22;12635;50.852;5.676;2023-03-01T11:14:21;7.10;99.90
24470;DHT22;12635;50.852;5.676;2023-03-01T11:16:49;7.10;99.90
24470;DHT22;12635;50.852;5.676;2023-03-01T11:19:24;7.50;99.90
24470;DHT22;12635;50.852;5.676;2023-03-01T11:21:53;7.70;99.90
24470;DHT22;12635;50.852;5.676;2023-03-01T11:24:23;7.40;99.90
24470;DHT22;12635;50.852;5.676;2023-03-01T11:26:54;6.80;99.90
24470;DHT22;12635;50.852;5.676;2023-03-01T11:29:26;6.50;99.90
24470;DHT22;12635;50.852;5.676;2023-03-01T11:31:54;6.70;99.90
24470;DHT22;12635;50.852;5.676;2023-03-01T11:34:23;6.90;99.90
24470;DHT22;12635;50.852;5.676;2023-03-01T11:36:56;6.80;99.90
24470;DHT22;12635;50.852;5.676;2023-03-01T11:39:26;7.10;99.90
24470;DHT22;12635;50.852;5.676;2023-03-01T11:42:00;7.50;99.90
24470;DHT22;12635;50.852;5.676;2023-03-01T11:44:28;7.60;99.90
24470;DHT22;12635;50.852;5.676;2023-03-01T11:47:19;7.00;99.90
24470;DHT22;12635;50.852;5.676;2023-03-01T11:49:51;7.60;99.90
24470;DHT22;12635;50.852;5.676;2023-03-01T11:52:23;7.60;99.90
24470;DHT22;12635;50.852;5.676;2023-03-01T11:54:56;7.70;99.90
24470;DHT22;12635;50.852;5.676;2023-03-01T11:57:37;8.10;99.90
24470;DHT22;12635;50.852;5.676;2023-03-01T12:03:00;7.40;99.90
24470;DHT22;12635;50.852;5.676;2023-03-01T12:05:44;6.80;99.90
24470;DHT22;12635;50.852;5.676;2023-03-01T12:08:15;7.30;99.90
24470;DHT22;12635;50.852;5.676;2023-03-01T12:10:43;7.20;99.90
24470;DHT22;12635;50.852;5.676;2023-03-01T12:13:21;7.60;99.90
24470;DHT22;12635;50.852;5.676;2023-03-01T12:18:47;7.70;99.90
24470;DHT22;12635;50.852;5.676;2023-03-01T12:21:19;7.10;99.90
24470;DHT22;12635;50.852;5.676;2023-03-01T12:26:44;7.20;99.90
24470;DHT22;12635;50.852;5.676;2023-03-01T12:29:21;7.10;99.90
24470;DHT22;12635;50.852;5.676;2023-03-01T12:34:39;7.00;99.90
24470;DHT22;12635;50.852;5.676;2023-03-01T12:40:12;7.60;99.90
24470;DHT22;12635;50.852;5.676;2023-03-01T12:42:44;7.10;99.90
24470;DHT22;12635;50.852;5.676;2023-03-01T12:45:25;7.00;99.90
24470;DHT22;12635;50.852;5.676;2023-03-01T12:47:57;6.30;99.90
24470;DHT22;12635;50.852;5.676;2023-03-01T12:50:26;7.20;99.90
24470;DHT22;12635;50.852;5.676;2023-03-01T12:52:55;7.80;99.90
24470;DHT22;12635;50.852;5.676;2023-03-01T12:55:25;7.50;99.90
24470;DHT22;12635;50.852;5.676;2023-03-01T12:57:55;6.50;99.90
24470;DHT22;12635;50.852;5.676;2023-03-01T13:00:26;6.60;99.90
24470;DHT22;12635;50.852;5.676;2023-03-01T13:02:55;7.10;99.90
24470;DHT22;12635;50.852;5.676;2023-03-01T13:05:29;6.70;99.90
24470;DHT22;12635;50.852;5.676;2023-03-01T13:07:59;7.50;99.90
24470;DHT22;12635;50.852;5.676;2023-03-01T13:10:29;7.60;99.90
24470;DHT22;12635;50.852;5.676;2023-03-01T13:13:18;7.80;99.90
24470;DHT22;12635;50.852;5.676;2023-03-01T13:15:47;7.60;99.90
24470;DHT22;12635;50.852;5.676;2023-03-01T13:18:29;8.00;99.90
24470;DHT22;12635;50.852;5.676;2023-03-01T13:20:56;8.10;99.90
24470;DHT22;12635;50.852;5.676;2023-03-01T13:23:25;8.50;99.90
24470;DHT22;12635;50.852;5.676;2023-03-01T13:28:45;8.10;99.90
24470;DHT22;12635;50.852;5.676;2023-03-01T13:33:56;8.20;99.90
24470;DHT22;12635;50.852;5.676;2023-03-01T13:41:52;8.80;99.90
24470;DHT22;12635;50.852;5.676;2023-03-01T13:44:20;8.90;99.90
24470;DHT22;12635;50.852;5.676;2023-03-01T13:46:48;8.80;99.90
24470;DHT22;12635;50.852;5.676;2023-03-01T13:49:18;7.80;99.90
24470;DHT22;12635;50.852;5.676;2023-03-01T13:51:46;8.10;99.90
24470;DHT22;12635;50.852;5.676;2023-03-01T13:54:13;8.50;99.90
24470;DHT22;12635;50.852;5.676;2023-03-01T13:56:41;8.70;99.90
24470;DHT22;12635;50.852;5.676;2023-03-01T13:59:13;8.70;99.90
24470;DHT22;12635;50.852;5.676;2023-03-01T14:01:40;8.50;99.90
24470;DHT22;12635;50.852;5.676;2023-03-01T14:04:18;9.00;99.90
24470;DHT22;12635;50.852;5.676;2023-03-01T14:06:46;9.20;99.90
24470;DHT22;12635;50.852;5.676;2023-03-01T14:09:14;9.40;99.90
24470;DHT22;12635;50.852;5.676;2023-03-01T14:14:44;9.10;99.90
24470;DHT22;12635;50.852;5.676;2023-03-01T14:17:19;8.90;99.90
24470;DHT22;12635;50.852;5.676;2023-03-01T14:19:54;9.30;99.90
24470;DHT22;12635;50.852;5.676;2023-03-01T14:22:22;8.90;99.90
24470;DHT22;12635;50.852;5.676;2023-03-01T14:24:49;9.00;99.90
24470;DHT22;12635;50.852;5.676;2023-03-01T14:27:17;8.80;99.90
24470;DHT22;12635;50.852;5.676;2023-03-01T14:29:53;8.80;99.90
24470;DHT22;12635;50.852;5.676;2023-03-01T14:32:21;8.90;99.90
24470;DHT22;12635;50.852;5.676;2023-03-01T14:34:50;8.40;99.90
24470;DHT22;12635;50.852;5.676;2023-03-01T14:37:18;8.60;99.90
24470;DHT22;12635;50.852;5.676;2023-03-01T14:39:46;9.00;99.90
24470;DHT22;12635;50.852;5.676;2023-03-01T14:42:13;8.70;99.90
24470;DHT22;12635;50.852;5.676;2023-03-01T14:44:40;8.60;99.90
24470;DHT22;12635;50.852;5.676;2023-03-01T14:47:10;8.10;99.90
24470;DHT22;12635;50.852;5.676;2023-03-01T14:49:38;8.60;99.90
24470;DHT22;12635;50.852;5.676;2023-03-01T14:52:16;9.20;99.90
24470;DHT22;12635;50.852;5.676;2023-03-01T14:54:44;9.40;99.90
24470;DHT22;12635;50.852;5.676;2023-03-01T14:57:13;8.80;99.90
24470;DHT22;12635;50.852;5.676;2023-03-01T14:59:41;8.90;99.90
24470;DHT22;12635;50.852;5.676;2023-03-01T15:02:09;8.60;99.90
24470;DHT22;12635;50.852;5.676;2023-03-01T15:04:42;8.50;99.90
24470;DHT22;12635;50.852;5.676;2023-03-01T15:07:12;8.70;99.90
24470;DHT22;12635;50.852;5.676;2023-03-01T15:09:40;9.00;99.90
24470;DHT22;12635;50.852;5.676;2023-03-01T15:12:33;8.50;99.90
24470;DHT22;12635;50.852;5.676;2023-03-01T15:15:00;8.80;99.90
24470;DHT22;12635;50.852;5.676;2023-03-01T15:17:30;8.70;99.90
24470;DHT22;12635;50.852;5.676;2023-03-01T15:19:57;8.40;99.90
24470;DHT22;12635;50.852;5.676;2023-03-01T15:22:26;8.50;99.90
24470;DHT22;12635;50.852;5.676;2023-03-01T15:24:53;8.60;99.90
24470;DHT22;12635;50.852;5.676;2023-03-01T15:27:21;8.40;99.90
24470;DHT22;12635;50.852;5.676;2023-03-01T15:29:49;8.70;99.90
24470;DHT22;12635;50.852;5.676;2023-03-01T15:32:24;8.70;99.90
24470;DHT22;12635;50.852;5.676;2023-03-01T15:34:52;8.50;99.90
24470;DHT22;12635;50.852;5.676;2023-03-01T15:40:02;8.10;99.90
24470;DHT22;12635;50.852;5.676;2023-03-01T15:42:37;8.30;99.90
24470;DHT22;12635;50.852;5.676;2023-03-01T15:45:08;8.20;99.90
24470;DHT22;12635;50.852;5.676;2023-03-01T15:47:39;8.10;99.90
24470;DHT22;12635;50.852;5.676;2023-03-01T15:50:11;8.20;99.90
24470;DHT22;12635;50.852;5.676;2023-03-01T15:52:42;8.00;99.90
24470;DHT22;12635;50.852;5.676;2023-03-01T15:55:15;8.00;99.90
24470;DHT22;12635;50.852;5.676;2023-03-01T15:57:42;8.10;99.90
24470;DHT22;12635;50.852;5.676;2023-03-01T16:00:10;8.00;99.90
24470;DHT22;12635;50.852;5.676;2023-03-01T16:02:39;7.90;99.90
24470;DHT22;12635;50.852;5.676;2023-03-01T16:05:08;7.70;99.90
24470;DHT22;12635;50.852;5.676;2023-03-01T16:07:41;8.00;99.90
24470;DHT22;12635;50.852;5.676;2023-03-01T16:10:09;7.90;99.90
24470;DHT22;12635;50.852;5.676;2023-03-01T16:12:37;7.90;99.90
24470;DHT22;12635;50.852;5.676;2023-03-01T16:15:08;7.80;99.90
24470;DHT22;12635;50.852;5.676;2023-03-01T16:17:39;7.70;99.90
24470;DHT22;12635;50.852;5.676;2023-03-01T16:20:06;7.60;99.90